Pro otázky ohledně software a připojení na VATSIMu. SB, FSInn, ASRC, VRC, EuroScope, ServInfo, ActiveSky a další.
Uživatelský avatar
By torpy68
#71501
Tak som si obstaral tento program,a chcel by som niekoho znalého poprosiť či by nemohol poskytnúť nejaké nastavenia pre lietanie na Vatsime :)
Díky
Uživatelský avatar
By BrandonSk
#74565
Ahoj,

nechcem to zjednodusovat, ale myslim, ze najdolezitejsie je v nom zaskrtnut polozku \"Use VATSIM weather\". Ostatne uz si mozes nastavit podla svojej chuti a HW.

Cheers,
B.
By IL62
#85274
Do nových windows 7 jsem nainstaloval FS9, a Active sky. Při spuštění FSky přes Active Sky se mi ale nezobrazují nainstalované scenerie. Při normálním spuštění ano.
Uživatelský avatar
By mipeba
#88013
Neblbne vám to nějak? Po spuštění vylítne jako nespuštěný nějaký modul nebo co a konec. Reinstal je k ničemu. Prý vyšel SP3 a mám podezření že se mi nějak sám stáhnul a doinstaloval a sprasil mi to...
Uživatelský avatar
By Vasek Machan
#88267
mám problém se spuštění ASE, když spustím, objeví se mi standartní tabulka Odesílat,Neodesílat, že došlo k chybě aták ... neví někdo co s tím? nebo návrh na jinej program na reálný počasí do fsky ... dík
Uživatelský avatar
By Vasek Machan
#88281
[quote="tmx"]Přeinstalovat. :) (pokud to dřív nedělalo)[/quote]
dřív to nedělalo, už jsem to zkoušel tisíckrát... mám aj sp3
By kubino83
#89175
Ahoj, potřebuji poradit. Mám nově zakoupenou verzi Active Sky Evolution. A mám problém s tím, že se mi nestahují aktuální data. Metar na LKPR je momentálně dle VATSIMu (LKPR 201000Z 25013KT 9999 SCT025 08/04 Q1023 NOSIG), ale ASE mi ukazuje METAR - 181900Z 19010KT CAVOK 12/07 Q1011 NOSIG. Přitom Vatsim online weather mám zaškrtnuto, ale ať dělám co dělám, stále stejné výsledky. SquawkBox ukazuje správně, ale FSka jede podle ASE, tím pádem špatné (staré) počasí a hlavně QNH. Prosím o radu, nikde jsem nic nenašel.Díky

Obrázek
By Aleš KL
#90755
Já s tím žádný problém nemám, ale HiFi soft vydal hlášení, že kdo není legal user, toho bude blokovat a trestně stíhat.Protože jsou tisíce ilegal userů a ty zahlcují jejich servery.Takže jestli někdo nemá nakoupeno, tak to může být tím.Než jsem to koupil, tak sjem nejdříve zkoušel stáhnutej(try before buy:) a pamatuju se, že mi to taky nějak vyhazovalo, to ale ještě snad sp3 nebyl.

EDIT.:Jo a to upozornění vydal 5.10.2011
By Tommy
#90757
Nějakej odkaz, týká se to jenom ASE nebo i AS6? Trochu upřesnit, ne?! To je totiž zajímavý víš...sice si to neumím představit, ale... :) :D

Prosím, hodil by jsi teda sem ten odkaz? Děkuji :)
By Aleš KL
#90763
Bylo to někde na fóru.Teď sem to našel akorát na thepiratebay.Ale nevim, jestli je to přesně ono.

Illegal Active Sky Pirates to be prosecuted! Unfortunately over the past 6 months pirate access has significantly damaged our server resources and ability for us to provide proper services to legitimate customers. We have logged thousands of illegal active user IP addresses and will begin prosecuting against them seeking criminal charges and damages starting next week. We anticipate this will create a great relief in our servers and provide much better service for legitimate customers. If you are a current illegal user, this is your final warning. Become a legitimate customer or stop using the software immediately. Those who convert to legitimate customers will not be prosecuted. All illegal access on or after 10/5/2011 will be strongly prosecuted in accordance to local and international laws.
Uživatelský avatar
By Čondra
#90764
[quote="Aleš KL"] na thepiratebay[/quote]
Ty si tu mooc zahráváš :P
By Aleš KL
#90765
[quote="Čondra87"][quote="Aleš KL"] na thepiratebay[/quote]
Ty si tu mooc zahráváš :P[/quote]

To vůbec.Když sem hledal to vyjádření, nasměroval mě tam gůůgl mezi prvníma odkazama.mehehe :) za gůgl neručim
Uživatelský avatar
By Čondra
#90766
Ale ručíš za to, co dáváš sem :). Aspoň, že to není odkaz :)
By Aleš KL
#90767
[quote="Čondra87"]Aspoň, že to není odkaz :)[/quote]
Tak zas tak blbej snad ještě nejsem :)
Uživatelský avatar
By Lapak
#90772
To prohlášení nepsali nikde na webu, ale je přímo v ASE v tom jejich \"intranetu\"
By Aleš KL
#90773
Já to četl na nějaký diskuzi.Ale tak, ono to neni zas tak drahý, aby se kvuli tomu musely hltit servery warezem.Navíc se to fakt vyplatí, mě osobně se ten soft hodně líbí.Teď vychází AS 2012, to by měla bejt ještě větší pecka i s texturama apod...
Uživatelský avatar
By Marty
#90805
[quote="kubino83"]Ahoj, potřebuji poradit. Mám nově zakoupenou verzi Active Sky Evolution. A mám problém s tím, že se mi nestahují aktuální data. Metar na LKPR je momentálně dle VATSIMu (LKPR 201000Z 25013KT 9999 SCT025 08/04 Q1023 NOSIG), ale ASE mi ukazuje METAR - 181900Z 19010KT CAVOK 12/07 Q1011 NOSIG. Přitom Vatsim online weather mám zaškrtnuto, ale ať dělám co dělám, stále stejné výsledky. SquawkBox ukazuje správně, ale FSka jede podle ASE, tím pádem špatné (staré) počasí a hlavně QNH. Prosím o radu, nikde jsem nic nenašel.Díky

Obrázek[/quote]

Ahoj,
zkoušel jsi se podívat jestli máš správně nastavenou synchonizaci AS z časem v počítači?....Mám takový dojem že to musí být zaškrtnuto. Mělo by jít i zpětně nastavit počasí s nějakým starším datem, které si AS tahá z nějakého archívu na netu. Pokud to není tak online na Vatsim myslím nepomůže. Přesně si to už nepamatuji ale vím, že jsem to v minulosti s někým řešil....
Uživatelský avatar
By torpy68
#93813
Ahoj,
Mám problém,pri spustení ASE sa mi normálne načíta aktuálne počasie,aj sa mi to normálne updatuje,ale v FSke zostane nastavené len to prvé počasie.Na updaty absolutne nereaguje.Ked otvorim report v ASE,tak vidím v texte aktuálny metar,ale v tom grafickom znázornení,a v FSke je furt len ten prvý načítaný.Nemá s týmto niekto skusenosti?